createdAt,value
2022-08-07T00:00:41.610Z,0.00
2022-08-07T00:01:44.099Z,0.00
2022-08-07T00:02:44.673Z,0.00
2022-08-07T00:03:47.199Z,0.00
2022-08-07T00:04:41.668Z,0.00
2022-08-07T00:05:41.567Z,0.00
2022-08-07T00:06:51.662Z,0.00
2022-08-07T00:07:41.817Z,0.00
2022-08-07T00:08:44.281Z,0.00
2022-08-07T00:09:50.192Z,0.00
2022-08-07T00:10:48.146Z,0.00
2022-08-07T00:11:53.956Z,0.00
2022-08-07T00:12:56.267Z,0.00
2022-08-07T00:13:44.711Z,0.00
2022-08-07T00:14:41.463Z,0.00
2022-08-07T00:15:46.853Z,0.00
2022-08-07T00:16:41.650Z,0.00
2022-08-07T00:17:41.448Z,0.00
2022-08-07T00:18:41.448Z,0.00
2022-08-07T00:20:01.498Z,0.00
2022-08-07T00:20:41.399Z,0.00
2022-08-07T00:21:55.946Z,0.00
2022-08-07T00:22:42.211Z,0.00
2022-08-07T00:23:41.374Z,0.00
2022-08-07T00:24:41.356Z,0.00
2022-08-07T00:25:41.723Z,0.00
2022-08-07T00:26:59.014Z,0.00
2022-08-07T00:27:53.512Z,0.00
2022-08-07T00:28:45.593Z,0.00
2022-08-07T00:29:41.307Z,0.00
2022-08-07T00:30:41.293Z,0.00
2022-08-07T00:31:42.220Z,0.00
2022-08-07T00:32:41.905Z,0.00
2022-08-07T00:33:41.619Z,0.00
2022-08-07T00:34:41.250Z,0.00
2022-08-07T00:35:41.233Z,0.00
2022-08-07T00:36:43.040Z,0.00
2022-08-07T00:37:47.600Z,0.00
2022-08-07T00:38:41.230Z,0.00
2022-08-07T00:39:45.226Z,0.00
2022-08-07T00:40:41.293Z,0.00
2022-08-07T00:41:45.392Z,0.00
2022-08-07T00:42:41.172Z,0.00
2022-08-07T00:44:01.466Z,0.00
2022-08-07T00:44:41.378Z,0.00
2022-08-07T00:45:41.292Z,0.00
2022-08-07T00:46:41.119Z,0.00
2022-08-07T00:48:09.476Z,0.00
2022-08-07T00:48:42.033Z,0.00
2022-08-07T00:50:19.338Z,0.00
2022-08-07T00:50:51.320Z,0.00
2022-08-07T00:51:57.435Z,0.00
2022-08-07T00:52:41.196Z,0.00
2022-08-07T00:53:50.265Z,0.00
2022-08-07T00:54:41.045Z,0.00
2022-08-07T00:56:00.524Z,0.00
2022-08-07T00:56:41.014Z,0.00
2022-08-07T00:57:44.402Z,0.00
2022-08-07T00:58:41.237Z,0.00
2022-08-07T00:59:41.513Z,0.00
2022-08-07T01:00:43.030Z,0.00
2022-08-07T01:01:44.736Z,0.00
2022-08-07T01:02:41.001Z,0.00
2022-08-07T01:03:56.617Z,0.00
2022-08-07T01:04:43.214Z,0.00
2022-08-07T01:05:40.924Z,0.00
2022-08-07T01:06:40.929Z,0.00
2022-08-07T01:07:40.897Z,0.00
2022-08-07T01:08:51.554Z,0.00
2022-08-07T01:10:07.126Z,0.00
2022-08-07T05:02:16.935Z,293.00
2022-08-07T05:03:16.708Z,293.00
2022-08-07T05:04:17.853Z,298.00
2022-08-07T05:05:52.138Z,302.00
2022-08-07T05:06:19.649Z,305.00
2022-08-07T05:07:20.545Z,307.00
2022-08-07T05:08:14.752Z,311.00
2022-08-07T05:09:14.729Z,316.00
2022-08-07T05:10:14.728Z,317.00
2022-08-07T05:11:19.475Z,321.00
2022-08-07T05:12:15.627Z,326.00
2022-08-07T05:14:52.591Z,328.00
2022-08-07T05:15:04.814Z,331.00
2022-08-07T05:15:14.664Z,334.00
2022-08-07T05:16:14.698Z,338.00
2022-08-07T05:17:50.442Z,339.00
2022-08-07T05:18:14.632Z,345.00
2022-08-07T05:19:14.621Z,346.00
2022-08-07T05:20:14.631Z,349.00
2022-08-07T05:21:15.337Z,354.00
2022-08-07T05:22:27.620Z,353.00
2022-08-07T05:23:16.009Z,355.00
2022-08-07T05:24:14.575Z,358.00
2022-08-07T05:25:26.259Z,361.00
2022-08-07T05:26:23.741Z,362.00
2022-08-07T05:28:03.323Z,364.00
2022-08-07T05:28:26.954Z,370.00
2022-08-07T05:29:14.505Z,371.00
2022-08-07T05:30:14.500Z,374.00
2022-08-07T05:31:16.680Z,376.00
2022-08-07T05:32:14.499Z,379.00
2022-08-07T05:33:14.471Z,380.00
2022-08-07T05:34:15.710Z,384.00
2022-08-07T05:35:14.455Z,386.00
2022-08-07T05:36:22.666Z,388.00
2022-08-07T05:37:14.431Z,389.00
2022-08-07T05:39:01.140Z,393.00
2022-08-07T05:40:17.702Z,396.00
2022-08-07T05:40:23.864Z,399.00
2022-08-07T05:41:21.825Z,397.00
2022-08-07T05:42:34.688Z,402.00
2022-08-07T05:43:19.536Z,406.00
2022-08-07T05:44:29.330Z,407.00
2022-08-07T05:45:46.249Z,410.00
2022-08-07T05:46:19.498Z,412.00
2022-08-07T05:47:19.501Z,414.00
2022-08-07T05:48:19.471Z,413.00
2022-08-07T05:49:19.457Z,418.00
2022-08-07T05:50:19.446Z,418.00
2022-08-07T05:51:19.478Z,418.00
2022-08-07T05:52:20.242Z,423.00
2022-08-07T05:54:13.598Z,425.00
2022-08-07T05:54:53.410Z,427.00
2022-08-07T05:55:19.396Z,430.00
2022-08-07T05:56:19.392Z,431.00
2022-08-07T05:57:19.438Z,431.00
2022-08-07T05:58:19.359Z,433.00
2022-08-07T05:59:19.357Z,434.00
2022-08-07T06:00:19.337Z,437.00
2022-08-07T06:01:19.371Z,442.00
2022-08-07T06:02:28.797Z,439.00
2022-08-07T06:03:19.334Z,442.00
2022-08-07T06:04:19.313Z,443.00
2022-08-07T06:05:19.652Z,446.00
2022-08-07T06:06:19.289Z,450.00
2022-08-07T06:07:22.979Z,449.00
2022-08-07T06:08:30.922Z,449.00
2022-08-07T06:09:19.248Z,453.00
2022-08-07T06:10:19.250Z,453.00
2022-08-07T06:11:19.219Z,457.00
2022-08-07T06:12:21.150Z,455.00
2022-08-07T06:13:19.199Z,459.00
2022-08-07T06:14:21.211Z,457.00
2022-08-07T06:15:19.956Z,457.00
2022-08-07T06:16:19.187Z,462.00
2022-08-07T06:17:19.162Z,464.00
2022-08-07T06:18:19.145Z,466.00
2022-08-07T06:19:57.531Z,466.00
2022-08-07T06:20:31.717Z,467.00
2022-08-07T06:22:14.425Z,468.00
2022-08-07T06:22:27.597Z,471.00
2022-08-07T06:23:45.799Z,471.00
2022-08-07T06:24:46.379Z,477.00
2022-08-07T06:25:19.067Z,475.00
2022-08-07T06:26:19.057Z,475.00
2022-08-07T06:27:22.933Z,474.00
2022-08-07T06:28:19.052Z,475.00
2022-08-07T06:29:19.023Z,478.00
2022-08-07T06:30:36.161Z,479.00
2022-08-07T06:31:19.005Z,483.00
2022-08-07T06:32:18.991Z,484.00
2022-08-07T06:33:18.986Z,483.00
2022-08-07T06:34:19.624Z,485.00
2022-08-07T06:35:18.955Z,486.00
2022-08-07T06:36:35.000Z,489.00
2022-08-07T06:37:20.399Z,489.00
2022-08-07T06:38:19.894Z,492.00
2022-08-07T06:40:17.476Z,495.00
2022-08-07T06:40:27.840Z,493.00
2022-08-07T06:41:18.896Z,495.00
2022-08-07T06:42:18.881Z,496.00
2022-08-07T06:43:20.950Z,497.00
2022-08-07T06:44:18.879Z,498.00
2022-08-07T06:45:18.845Z,497.00
2022-08-07T06:46:20.403Z,500.00
2022-08-07T06:47:18.831Z,502.00
2022-08-07T06:48:25.136Z,503.00
2022-08-07T06:49:18.826Z,505.00
2022-08-07T06:50:19.132Z,505.00
2022-08-07T06:51:31.341Z,506.00
2022-08-07T06:52:18.778Z,507.00
2022-08-07T06:54:12.106Z,511.00
2022-08-07T06:55:53.707Z,509.00
2022-08-07T06:56:07.550Z,514.00
2022-08-07T06:56:50.014Z,514.00
2022-08-07T06:57:50.948Z,515.00
2022-08-07T07:00:12.382Z,519.00
2022-08-07T07:00:22.048Z,518.00
2022-08-07T07:00:48.985Z,519.00
2022-08-07T07:01:50.869Z,522.00
2022-08-07T07:02:54.553Z,521.00
2022-08-07T07:03:57.205Z,523.00
2022-08-07T07:04:54.943Z,525.00
2022-08-07T07:06:04.026Z,527.00
2022-08-07T07:07:00.265Z,529.00
2022-08-07T07:07:59.717Z,529.00
2022-08-07T07:08:48.908Z,529.00
2022-08-07T07:09:48.884Z,533.00
2022-08-07T07:10:56.710Z,532.00
2022-08-07T07:12:10.611Z,536.00
2022-08-07T07:12:53.373Z,537.00
2022-08-07T07:13:57.865Z,537.00
2022-08-07T07:14:48.837Z,538.00
2022-08-07T07:15:51.522Z,540.00
2022-08-07T07:16:50.760Z,541.00
2022-08-07T07:17:50.524Z,545.00
2022-08-07T07:18:48.891Z,544.00
2022-08-07T07:19:57.935Z,548.00
2022-08-07T07:20:48.771Z,547.00
2022-08-07T07:22:04.621Z,552.00
2022-08-07T07:24:05.598Z,552.00
2022-08-07T07:24:14.422Z,554.00
2022-08-07T07:24:58.544Z,555.00
2022-08-07T07:26:34.831Z,557.00
2022-08-07T07:26:52.019Z,559.00
2022-08-07T07:27:55.562Z,562.00
2022-08-07T07:29:40.117Z,562.00
2022-08-07T07:30:10.087Z,562.00
2022-08-07T07:30:48.664Z,565.00
2022-08-07T07:31:48.663Z,568.00
2022-08-07T07:32:48.632Z,567.00
2022-08-07T07:33:49.033Z,570.00
2022-08-07T07:34:48.837Z,569.00
2022-08-07T07:36:04.503Z,571.00
2022-08-07T07:36:54.004Z,571.00
2022-08-07T07:37:59.196Z,573.00
2022-08-07T07:38:48.568Z,574.00
2022-08-07T07:39:54.649Z,574.00
2022-08-07T07:40:48.555Z,574.00
2022-08-07T07:41:50.789Z,576.00
2022-08-07T07:42:53.887Z,578.00
2022-08-07T07:44:16.757Z,579.00
2022-08-07T07:44:49.594Z,579.00
2022-08-07T07:46:40.152Z,579.00
2022-08-07T07:47:23.654Z,580.00
2022-08-07T07:47:52.451Z,583.00
2022-08-07T07:48:48.471Z,586.00
2022-08-07T07:50:34.012Z,586.00
2022-08-07T07:50:48.440Z,589.00
2022-08-07T07:51:58.009Z,597.00
2022-08-07T07:52:48.415Z,598.00
2022-08-07T07:53:52.596Z,601.00
2022-08-07T07:54:51.160Z,603.00
2022-08-07T07:55:54.789Z,603.00
2022-08-07T07:56:48.374Z,604.00
2022-08-07T07:57:53.386Z,604.00
2022-08-07T07:58:48.359Z,604.00
2022-08-07T07:59:51.798Z,605.00
2022-08-07T08:00:53.761Z,606.00
2022-08-07T08:02:02.263Z,605.00
2022-08-07T08:03:04.522Z,607.00
2022-08-07T08:04:10.016Z,608.00
2022-08-07T08:04:50.432Z,606.00
2022-08-07T08:05:55.016Z,607.00
2022-08-07T08:06:52.349Z,607.00
2022-08-07T08:08:00.050Z,608.00
2022-08-07T08:08:48.371Z,617.00
2022-08-07T08:09:52.312Z,623.00
2022-08-07T08:10:48.244Z,615.00
2022-08-07T08:11:59.129Z,618.00
2022-08-07T08:12:59.266Z,617.00
2022-08-07T08:13:54.504Z,620.00
2022-08-07T08:14:48.178Z,618.00
2022-08-07T08:15:58.932Z,625.00
2022-08-07T08:16:49.398Z,621.00
2022-08-07T08:18:17.665Z,624.00
2022-08-07T08:18:50.470Z,628.00
2022-08-07T08:20:18.551Z,631.00
2022-08-07T08:20:48.117Z,633.00
2022-08-07T08:21:55.541Z,636.00
2022-08-07T08:22:55.680Z,639.00
2022-08-07T08:23:48.090Z,639.00
2022-08-07T08:24:48.075Z,641.00
2022-08-07T08:25:48.968Z,646.00
2022-08-07T08:26:50.474Z,649.00
2022-08-07T08:27:56.060Z,649.00
2022-08-07T08:28:48.039Z,650.00
2022-08-07T08:29:55.500Z,654.00
2022-08-07T08:30:51.111Z,655.00
2022-08-07T08:32:16.769Z,657.00
2022-08-07T08:32:49.106Z,659.00
2022-08-07T08:33:49.353Z,659.00
2022-08-07T08:34:47.955Z,662.00
2022-08-07T08:35:50.953Z,666.00
2022-08-07T08:36:47.943Z,664.00
2022-08-07T08:38:00.966Z,666.00
2022-08-07T08:38:47.917Z,666.00
2022-08-07T08:39:55.229Z,667.00
2022-08-07T08:40:47.905Z,668.00
2022-08-07T08:41:57.403Z,669.00
2022-08-07T08:42:47.882Z,672.00
2022-08-07T08:43:58.673Z,676.00
2022-08-07T08:44:47.855Z,677.00
2022-08-07T08:45:59.003Z,677.00
2022-08-07T08:46:47.872Z,678.00
2022-08-07T08:47:54.619Z,679.00
2022-08-07T08:48:50.964Z,683.00
2022-08-07T08:50:02.971Z,684.00
2022-08-07T08:50:47.787Z,689.00
2022-08-07T08:52:12.799Z,710.00
2022-08-07T08:52:53.680Z,806.00
2022-08-07T08:53:47.764Z,695.00
2022-08-07T08:54:47.752Z,698.00
2022-08-07T08:55:54.730Z,700.00
2022-08-07T08:56:48.001Z,702.00
2022-08-07T08:57:47.714Z,704.00
2022-08-07T08:58:47.731Z,705.00
2022-08-07T08:59:48.020Z,709.00
2022-08-07T09:00:48.647Z,716.00
2022-08-07T09:01:49.566Z,712.00
2022-08-07T09:02:52.392Z,716.00
2022-08-07T09:03:52.657Z,722.00
2022-08-07T09:04:47.656Z,722.00
2022-08-07T09:05:47.781Z,724.00
2022-08-07T09:06:48.216Z,729.00
2022-08-07T09:07:58.180Z,728.00
2022-08-07T09:08:47.643Z,729.00
2022-08-07T09:09:47.753Z,724.00
2022-08-07T09:10:47.575Z,723.00
2022-08-07T09:11:53.357Z,720.00
2022-08-07T09:12:53.628Z,723.00
2022-08-07T09:13:47.552Z,721.00
2022-08-07T09:14:50.997Z,721.00
2022-08-07T09:16:25.606Z,722.00
2022-08-07T09:16:47.740Z,723.00
2022-08-07T09:17:59.576Z,726.00
2022-08-07T09:18:53.415Z,729.00
2022-08-07T09:19:51.096Z,732.00
2022-08-07T09:20:58.572Z,734.00
2022-08-07T09:22:10.072Z,733.00
2022-08-07T09:24:52.405Z,731.00
2022-08-07T09:25:07.027Z,729.00
2022-08-07T09:25:20.302Z,728.00
2022-08-07T09:26:13.854Z,728.00
2022-08-07T09:27:13.835Z,729.00
2022-08-07T09:30:00.793Z,729.00
2022-08-07T09:30:09.031Z,731.00
2022-08-07T09:30:14.146Z,734.00
2022-08-07T09:31:15.400Z,735.00
2022-08-07T09:32:16.989Z,738.00
2022-08-07T09:33:24.225Z,739.00
2022-08-07T09:34:14.110Z,741.00
2022-08-07T09:36:01.364Z,745.00
2022-08-07T09:36:14.077Z,743.00
2022-08-07T09:37:14.070Z,742.00
2022-08-07T09:38:14.050Z,742.00
2022-08-07T09:39:52.464Z,740.00
2022-08-07T09:40:14.098Z,741.00
2022-08-07T09:41:14.050Z,743.00
2022-08-07T09:42:17.175Z,746.00
2022-08-07T09:43:14.641Z,752.00
2022-08-07T09:44:19.930Z,758.00
2022-08-07T09:47:42.521Z,770.00
2022-08-07T09:48:06.161Z,779.00
2022-08-07T09:48:19.066Z,779.00
2022-08-07T09:50:01.622Z,776.00
2022-08-07T09:50:19.111Z,778.00
2022-08-07T09:51:25.905Z,776.00
2022-08-07T09:52:34.473Z,770.00
2022-08-07T09:53:12.590Z,769.00
2022-08-07T09:54:16.337Z,773.00
2022-08-07T09:55:16.899Z,776.00
2022-08-07T09:56:12.289Z,775.00
2022-08-07T09:57:12.927Z,777.00
2022-08-07T09:58:12.052Z,776.00
2022-08-07T09:59:14.103Z,776.00
2022-08-07T10:00:14.685Z,779.00
2022-08-07T10:01:50.359Z,782.00
2022-08-07T10:02:12.015Z,785.00
2022-08-07T10:04:05.571Z,786.00
2022-08-07T10:04:32.577Z,792.00
2022-08-07T10:05:12.692Z,797.00
2022-08-07T10:06:12.512Z,808.00
2022-08-07T10:07:25.900Z,735.00
2022-08-07T10:08:11.944Z,721.00
2022-08-07T10:09:15.240Z,808.00
2022-08-07T10:10:21.847Z,835.00
2022-08-07T10:11:16.771Z,880.00
2022-08-07T10:12:18.110Z,926.00
2022-08-07T10:13:15.897Z,1128.00
2022-08-07T10:14:11.894Z,1306.00
2022-08-07T10:15:15.345Z,1782.00
2022-08-07T10:16:11.881Z,1848.00
2022-08-07T10:17:14.122Z,1683.00
2022-08-07T10:18:11.906Z,1525.00
2022-08-07T10:19:11.819Z,1557.00
2022-08-07T10:20:12.887Z,1853.00
2022-08-07T10:21:19.971Z,1908.00
2022-08-07T10:22:17.352Z,1779.00
2022-08-07T10:23:11.789Z,1671.00
2022-08-07T10:24:12.819Z,1637.00
2022-08-07T10:25:11.755Z,1561.00
2022-08-07T10:26:11.750Z,1427.00
2022-08-07T10:27:11.738Z,1320.00
2022-08-07T10:28:12.701Z,1137.00
2022-08-07T10:29:11.710Z,1466.00
2022-08-07T10:30:12.003Z,1935.00
2022-08-07T10:31:11.694Z,2058.00
2022-08-07T10:32:33.336Z,1837.00
2022-08-07T10:33:14.955Z,1556.00
2022-08-07T10:34:17.817Z,1405.00
2022-08-07T10:35:12.443Z,1381.00
2022-08-07T10:36:12.520Z,1341.00
2022-08-07T10:37:12.391Z,1339.00
2022-08-07T10:38:35.261Z,1418.00
2022-08-07T10:39:11.677Z,1422.00
2022-08-07T10:40:12.623Z,1293.00
2022-08-07T10:41:11.592Z,1198.00
2022-08-07T10:42:21.302Z,1035.00
2022-08-07T10:43:11.586Z,1567.00
2022-08-07T10:44:11.559Z,1818.00
2022-08-07T10:45:11.564Z,1747.00
2022-08-07T10:46:11.539Z,1765.00
2022-08-07T10:47:13.969Z,1722.00
2022-08-07T10:48:11.515Z,1623.00
2022-08-07T10:49:11.507Z,1536.00
2022-08-07T10:50:11.502Z,1452.00
2022-08-07T10:51:16.887Z,1346.00
2022-08-07T10:52:13.792Z,1248.00
2022-08-07T10:53:11.467Z,1196.00
2022-08-07T10:54:11.447Z,1152.00
2022-08-07T10:55:20.798Z,1138.00
2022-08-07T10:56:20.985Z,1164.00
2022-08-07T10:57:11.438Z,1189.00
2022-08-07T10:58:11.427Z,1185.00
2022-08-07T10:59:13.518Z,1174.00
2022-08-07T11:00:36.460Z,1177.00
2022-08-07T11:01:12.358Z,1166.00
2022-08-07T11:02:12.552Z,1173.00
2022-08-07T11:03:12.643Z,1201.00
2022-08-07T11:04:31.391Z,1201.00
2022-08-07T11:05:11.330Z,1178.00
2022-08-07T11:06:11.312Z,1156.00
2022-08-07T11:07:14.942Z,1141.00
2022-08-07T11:08:11.771Z,1141.00
2022-08-07T11:09:11.663Z,1152.00
2022-08-07T11:10:12.507Z,1164.00
2022-08-07T11:11:11.286Z,1169.00
2022-08-07T11:12:11.269Z,1170.00
2022-08-07T11:13:42.398Z,1173.00
2022-08-07T11:15:00.600Z,1176.00
2022-08-07T11:15:17.266Z,1177.00
2022-08-07T11:16:11.209Z,1179.00
2022-08-07T11:17:23.109Z,1182.00
2022-08-07T11:18:12.662Z,1189.00
2022-08-07T11:19:11.199Z,1189.00
2022-08-07T11:20:11.185Z,1196.00
2022-08-07T11:21:11.153Z,1206.00
2022-08-07T11:22:26.339Z,1220.00
2022-08-07T11:23:11.145Z,1230.00
2022-08-07T11:24:11.136Z,1246.00
2022-08-07T11:25:11.154Z,1257.00
2022-08-07T11:26:12.937Z,1259.00
2022-08-07T11:27:13.498Z,1266.00
2022-08-07T11:28:15.344Z,1275.00
2022-08-07T11:29:13.082Z,1280.00
2022-08-07T11:30:18.227Z,1283.00
2022-08-07T11:31:11.416Z,1287.00
2022-08-07T11:32:11.032Z,1292.00
2022-08-07T11:33:14.249Z,1296.00
2022-08-07T11:34:11.028Z,1301.00
2022-08-07T11:35:11.017Z,1310.00
2022-08-07T11:36:11.026Z,1327.00
2022-08-07T11:37:11.778Z,1342.00
2022-08-07T11:38:17.225Z,1354.00
2022-08-07T11:39:14.483Z,1366.00
2022-08-07T11:40:11.086Z,1377.00
2022-08-07T11:41:10.943Z,1392.00
2022-08-07T11:42:16.849Z,1401.00
2022-08-07T11:43:10.919Z,1407.00
2022-08-07T11:44:14.266Z,1415.00
2022-08-07T11:45:12.314Z,1423.00
2022-08-07T11:46:10.920Z,1412.00
2022-08-07T11:47:10.898Z,1414.00
2022-08-07T11:48:18.045Z,1456.00
2022-08-07T11:49:51.494Z,1470.00
2022-08-07T11:50:35.399Z,1465.00
2022-08-07T11:51:10.827Z,1474.00
2022-08-07T11:52:10.827Z,1491.00
2022-08-07T11:53:10.808Z,1509.00
2022-08-07T11:54:10.818Z,1518.00
2022-08-07T11:55:18.520Z,1526.00
2022-08-07T11:56:27.518Z,1535.00
2022-08-07T11:57:12.844Z,1541.00
2022-08-07T11:58:16.350Z,1560.00
2022-08-07T12:00:08.236Z,1577.00
2022-08-07T12:00:28.365Z,1587.00
2022-08-07T12:01:10.728Z,1600.00
2022-08-07T12:02:20.655Z,1623.00
2022-08-07T12:03:45.022Z,1637.00
2022-08-07T12:04:10.718Z,1650.00
2022-08-07T12:05:15.237Z,1668.00
2022-08-07T12:06:39.774Z,1625.00
2022-08-07T12:07:27.659Z,1591.00
2022-08-07T12:08:25.443Z,1699.00
2022-08-07T12:09:16.145Z,1761.00
2022-08-07T12:10:10.649Z,1767.00
2022-08-07T12:11:21.019Z,1780.00
2022-08-07T12:12:12.181Z,1794.00
2022-08-07T12:13:11.627Z,1805.00
2022-08-07T12:14:10.591Z,1825.00
2022-08-07T12:15:17.141Z,1846.00
2022-08-07T12:16:10.577Z,1866.00
2022-08-07T12:17:10.566Z,1883.00
2022-08-07T12:18:11.418Z,1907.00
2022-08-07T12:19:10.542Z,1938.00
2022-08-07T12:20:20.843Z,1969.00
2022-08-07T12:21:10.520Z,1997.00
2022-08-07T12:22:37.239Z,2011.00
2022-08-07T12:23:10.507Z,2028.00
2022-08-07T12:24:37.644Z,2046.00
2022-08-07T12:25:10.482Z,2056.00
2022-08-07T12:26:28.634Z,2065.00
2022-08-07T12:27:13.241Z,2071.00
2022-08-07T12:28:11.135Z,2087.00
2022-08-07T12:29:11.328Z,2088.00
2022-08-07T12:30:10.422Z,2093.00
2022-08-07T12:31:10.401Z,2116.00
2022-08-07T12:32:13.099Z,2135.00
2022-08-07T12:33:18.892Z,2156.00
2022-08-07T12:34:10.397Z,2177.00
2022-08-07T12:35:10.358Z,2189.00
2022-08-07T12:36:10.978Z,2190.00
2022-08-07T12:37:16.585Z,2170.00
2022-08-07T12:38:16.933Z,2171.00
2022-08-07T12:39:42.749Z,2210.00
2022-08-07T12:40:36.192Z,2247.00
2022-08-07T12:41:10.349Z,2270.00
2022-08-07T12:42:10.297Z,2312.00
2022-08-07T12:43:10.350Z,2325.00
2022-08-07T12:44:13.095Z,2254.00
2022-08-07T12:45:10.258Z,2090.00
2022-08-07T12:46:10.267Z,2397.00
2022-08-07T12:47:10.235Z,2439.00
2022-08-07T12:48:13.045Z,2432.00
2022-08-07T12:49:39.729Z,2421.00
2022-08-07T12:50:38.352Z,2412.00
2022-08-07T12:51:17.142Z,2443.00
2022-08-07T12:52:14.011Z,2446.00
2022-08-07T12:53:17.891Z,2475.00
2022-08-07T12:54:37.030Z,2485.00
2022-08-07T12:55:17.568Z,2533.00
2022-08-07T12:56:10.191Z,2531.00
2022-08-07T12:57:10.337Z,2551.00
2022-08-07T12:58:10.119Z,2568.00
2022-08-07T12:59:10.108Z,2542.00
2022-08-07T13:00:16.437Z,2486.00
2022-08-07T13:01:10.125Z,2531.00
2022-08-07T13:02:10.349Z,2574.00
2022-08-07T13:03:13.078Z,2582.00
2022-08-07T13:04:10.087Z,2594.00
2022-08-07T13:05:14.982Z,2595.00
2022-08-07T13:06:21.865Z,2616.00
2022-08-07T13:07:10.049Z,2633.00
2022-08-07T13:08:14.096Z,2641.00
2022-08-07T13:09:33.416Z,2679.00
2022-08-07T13:10:39.683Z,2706.00
2022-08-07T13:11:09.975Z,2721.00
2022-08-07T13:12:13.250Z,2735.00
2022-08-07T13:13:10.005Z,2775.00
2022-08-07T13:14:09.947Z,2803.00
2022-08-07T13:15:09.939Z,2836.00
2022-08-07T13:16:09.923Z,2835.00
2022-08-07T13:17:09.910Z,2862.00
2022-08-07T13:18:09.900Z,2871.00
2022-08-07T13:19:18.204Z,2866.00
2022-08-07T13:20:09.891Z,2886.00
2022-08-07T13:21:09.867Z,2841.00
2022-08-07T13:22:19.656Z,2832.00
2022-08-07T13:24:02.011Z,2849.00
2022-08-07T13:24:11.449Z,2887.00
2022-08-07T13:25:09.835Z,2842.00
2022-08-07T13:26:15.724Z,2881.00
2022-08-07T13:27:09.811Z,2899.00
2022-08-07T13:28:13.128Z,2884.00
2022-08-07T13:29:09.783Z,2934.00
2022-08-07T13:30:19.144Z,2913.00
2022-08-07T13:31:13.117Z,2965.00
2022-08-07T13:32:31.224Z,3022.00
2022-08-07T13:34:31.954Z,3063.00
2022-08-07T13:34:39.309Z,3100.00
2022-08-07T13:35:09.744Z,3147.00
2022-08-07T13:36:09.723Z,3124.00
2022-08-07T13:37:10.973Z,3112.00
2022-08-07T13:38:09.714Z,3101.00
2022-08-07T13:39:12.876Z,3172.00
2022-08-07T13:40:34.884Z,3174.00
2022-08-07T13:41:09.736Z,3200.00
2022-08-07T13:42:09.656Z,3197.00
2022-08-07T13:43:12.102Z,3216.00
2022-08-07T13:44:10.465Z,3211.00
2022-08-07T13:45:20.864Z,3237.00
2022-08-07T13:46:25.599Z,3268.00
2022-08-07T13:47:09.901Z,3355.00
2022-08-07T13:48:10.636Z,3207.00
2022-08-07T13:50:34.654Z,3186.00
2022-08-07T13:51:01.459Z,3081.00
2022-08-07T13:51:28.058Z,3394.00
2022-08-07T13:52:31.801Z,3357.00
2022-08-07T13:53:09.538Z,3357.00
2022-08-07T13:54:09.535Z,3470.00
2022-08-07T13:55:11.049Z,3481.00
2022-08-07T13:56:09.507Z,3487.00
2022-08-07T13:57:09.526Z,3540.00
2022-08-07T13:58:09.484Z,3536.00
2022-08-07T13:59:10.366Z,3585.00
2022-08-07T14:00:13.409Z,3569.00
2022-08-07T14:01:09.574Z,3533.00
2022-08-07T14:02:10.167Z,3531.00
2022-08-07T14:03:09.462Z,3560.00
2022-08-07T14:04:09.484Z,3570.00
2022-08-07T14:05:09.494Z,3589.00
2022-08-07T14:06:09.409Z,3588.00
2022-08-07T14:07:10.066Z,3561.00
2022-08-07T14:08:09.391Z,3526.00
2022-08-07T14:09:09.386Z,3623.00
2022-08-07T14:10:21.543Z,3686.00
2022-08-07T14:11:15.337Z,3718.00
2022-08-07T14:12:10.463Z,3613.00
2022-08-07T14:13:09.335Z,3690.00
2022-08-07T14:14:09.327Z,3724.00
2022-08-07T14:15:09.332Z,3913.00
2022-08-07T14:16:15.352Z,3777.00
2022-08-07T14:17:13.158Z,3143.00
2022-08-07T14:18:28.610Z,3795.00
2022-08-07T14:19:09.278Z,3673.00
2022-08-07T14:20:41.883Z,3827.00
2022-08-07T14:21:20.803Z,3806.00
2022-08-07T14:22:10.793Z,3907.00
2022-08-07T14:23:09.251Z,3790.00
2022-08-07T14:24:09.281Z,3799.00
2022-08-07T14:25:09.201Z,3861.00
2022-08-07T14:26:09.197Z,3827.00
2022-08-07T14:28:11.492Z,3971.00
2022-08-07T14:28:17.568Z,3984.00
2022-08-07T14:30:06.157Z,3983.00
2022-08-07T14:30:27.742Z,4023.00
2022-08-07T14:31:09.153Z,4094.00
2022-08-07T14:32:09.159Z,4149.00
2022-08-07T14:33:09.122Z,4233.00
2022-08-07T14:34:10.091Z,4317.00
2022-08-07T14:35:09.107Z,4385.00
2022-08-07T14:36:09.111Z,4483.00
2022-08-07T14:37:16.304Z,4617.00
2022-08-07T14:38:09.120Z,4703.00
2022-08-07T14:39:09.105Z,4794.00
2022-08-07T14:40:15.655Z,4946.00
2022-08-07T14:41:12.384Z,5114.00
2022-08-07T15:52:02.575Z,5337.00
2022-08-07T15:52:09.554Z,4970.00
2022-08-07T15:53:07.546Z,1879.00
2022-08-07T15:54:11.902Z,1851.00
2022-08-07T15:55:09.063Z,1832.00
2022-08-07T15:56:07.519Z,1820.00
2022-08-07T15:57:07.522Z,1794.00
2022-08-07T15:58:10.489Z,1772.00
2022-08-07T15:59:07.490Z,1760.00
2022-08-07T16:00:07.481Z,1725.00
2022-08-07T16:01:07.503Z,1640.00
2022-08-07T16:02:07.517Z,1528.00
2022-08-07T16:03:08.548Z,1386.00
2022-08-07T16:04:14.247Z,1224.00
2022-08-07T16:05:15.297Z,1119.00
2022-08-07T16:06:07.414Z,1077.00
2022-08-07T16:08:28.259Z,1034.00
2022-08-07T16:08:38.852Z,975.00
2022-08-07T16:09:07.673Z,947.00
2022-08-07T16:10:09.614Z,949.00
2022-08-07T16:11:26.914Z,946.00
2022-08-07T16:12:07.355Z,934.00
2022-08-07T16:13:17.441Z,930.00
2022-08-07T16:14:07.354Z,935.00
2022-08-07T16:15:07.317Z,932.00
2022-08-07T16:16:47.540Z,922.00
2022-08-07T16:17:15.994Z,910.00
2022-08-07T16:18:07.292Z,903.00
2022-08-07T16:19:09.519Z,912.00
2022-08-07T16:20:07.293Z,929.00
2022-08-07T16:22:01.457Z,914.00
2022-08-07T16:22:30.167Z,893.00
2022-08-07T16:23:09.893Z,886.00
2022-08-07T16:24:09.150Z,879.00
2022-08-07T16:25:07.738Z,881.00
2022-08-07T16:26:07.229Z,892.00
2022-08-07T16:27:17.915Z,898.00
2022-08-07T16:28:10.352Z,897.00
2022-08-07T16:30:11.879Z,908.00
2022-08-07T16:30:35.849Z,926.00
2022-08-07T16:31:10.028Z,918.00
2022-08-07T16:32:07.141Z,924.00
2022-08-07T16:34:01.304Z,947.00
2022-08-07T16:34:18.172Z,1006.00
2022-08-07T16:35:50.271Z,1005.00
2022-08-07T16:36:07.103Z,878.00
2022-08-07T16:38:05.673Z,912.00
2022-08-07T16:38:13.830Z,898.00
2022-08-07T16:39:10.085Z,952.00
2022-08-07T16:40:09.558Z,1025.00
2022-08-07T16:41:07.148Z,955.00
2022-08-07T16:42:07.030Z,972.00
2022-08-07T16:43:07.027Z,1091.00
2022-08-07T16:44:31.793Z,1143.00
2022-08-07T16:45:14.982Z,1095.00
2022-08-07T16:46:21.070Z,1014.00
2022-08-07T16:47:16.732Z,946.00
2022-08-07T16:48:06.982Z,888.00
2022-08-07T16:50:28.095Z,881.00
2022-08-07T16:50:57.736Z,872.00
2022-08-07T16:51:57.842Z,880.00
2022-08-07T16:52:50.676Z,887.00
2022-08-07T16:53:55.595Z,910.00
2022-08-07T16:54:09.623Z,923.00
2022-08-07T16:55:08.361Z,926.00
2022-08-07T16:56:06.891Z,923.00
2022-08-07T16:57:06.881Z,923.00
2022-08-07T16:58:08.015Z,925.00
2022-08-07T16:59:14.484Z,923.00
2022-08-07T17:00:07.844Z,937.00
2022-08-07T17:01:07.943Z,958.00
2022-08-07T17:02:06.821Z,947.00
2022-08-07T17:03:07.025Z,923.00
2022-08-07T17:04:07.640Z,938.00
2022-08-07T17:05:06.795Z,947.00
2022-08-07T17:06:29.649Z,937.00
2022-08-07T17:07:06.796Z,952.00
2022-08-07T17:08:09.153Z,944.00
2022-08-07T17:09:10.924Z,913.00
2022-08-07T17:10:09.227Z,888.00
2022-08-07T17:11:06.746Z,870.00
2022-08-07T17:12:33.757Z,873.00
2022-08-07T17:13:08.438Z,891.00
2022-08-07T17:14:18.286Z,896.00
2022-08-07T17:15:06.685Z,902.00
2022-08-07T17:16:06.675Z,952.00
2022-08-07T17:17:06.686Z,1004.00
2022-08-07T17:18:14.300Z,1003.00
2022-08-07T17:19:06.641Z,913.00
2022-08-07T17:20:14.272Z,877.00
2022-08-07T17:21:18.583Z,866.00
2022-08-07T17:22:06.630Z,856.00
2022-08-07T17:23:11.471Z,903.00
2022-08-07T17:24:06.608Z,921.00
2022-08-07T17:25:08.202Z,1032.00
2022-08-07T17:26:06.571Z,1008.00